createdAt,value
2023-01-26T00:01:23.453Z,104.43
2023-01-26T00:03:50.957Z,92.97
2023-01-26T00:06:19.993Z,91.03
2023-01-26T00:08:51.868Z,98.80
2023-01-26T00:11:21.061Z,102.07
2023-01-26T00:13:50.914Z,87.53
2023-01-26T00:16:17.833Z,99.20
2023-01-26T00:18:45.044Z,81.93
2023-01-26T00:21:17.548Z,91.03
2023-01-26T00:23:44.697Z,88.03
2023-01-26T00:26:15.823Z,85.27
2023-01-26T00:28:42.626Z,85.37
2023-01-26T00:31:14.579Z,94.40
2023-01-26T00:33:41.630Z,93.13
2023-01-26T00:36:09.397Z,81.87
2023-01-26T00:38:36.310Z,79.20
2023-01-26T00:41:03.173Z,81.23
2023-01-26T00:43:30.195Z,82.57
2023-01-26T00:45:56.933Z,72.90
2023-01-26T00:48:24.928Z,83.57
2023-01-26T00:50:52.539Z,81.77
2023-01-26T00:53:19.576Z,77.57
2023-01-26T00:55:46.424Z,77.30
2023-01-26T00:58:13.152Z,78.43
2023-01-26T01:00:40.071Z,94.10
2023-01-26T01:03:07.162Z,83.63
2023-01-26T01:05:34.508Z,78.63
2023-01-26T01:08:01.725Z,83.53
2023-01-26T01:10:28.989Z,77.33
2023-01-26T01:12:56.628Z,78.07
2023-01-26T01:15:24.231Z,94.67
2023-01-26T01:17:51.455Z,89.10
2023-01-26T01:20:18.271Z,86.90
2023-01-26T01:22:44.988Z,91.27
2023-01-26T01:25:11.710Z,90.33
2023-01-26T01:27:38.533Z,87.57
2023-01-26T01:30:08.216Z,88.20
2023-01-26T01:32:41.976Z,92.37
2023-01-26T01:35:09.035Z,84.20
2023-01-26T01:37:36.887Z,85.23
2023-01-26T01:40:03.967Z,84.73
2023-01-26T01:42:30.830Z,90.37
2023-01-26T01:45:38.647Z,81.00
2023-01-26T01:48:12.240Z,88.63
2023-01-26T01:50:40.153Z,91.33
2023-01-26T01:53:11.997Z,88.23
2023-01-26T01:55:39.334Z,84.57
2023-01-26T01:58:07.059Z,83.17
2023-01-26T02:00:34.048Z,96.63
2023-01-26T02:03:12.742Z,82.37
2023-01-26T02:05:45.297Z,72.73
2023-01-26T02:08:14.664Z,82.37
2023-01-26T02:10:48.619Z,82.60
2023-01-26T02:13:17.953Z,79.50
2023-01-26T02:15:44.947Z,78.80
2023-01-26T02:18:12.045Z,83.10
2023-01-26T02:20:52.041Z,79.37
2023-01-26T02:23:27.969Z,83.67
2023-01-26T02:25:54.960Z,77.07
2023-01-26T02:28:26.656Z,80.60
2023-01-26T02:30:54.815Z,74.50
2023-01-26T02:33:24.520Z,82.87
2023-01-26T02:35:51.365Z,85.67
2023-01-26T02:38:21.620Z,77.57
2023-01-26T02:41:12.647Z,71.63
2023-01-26T02:43:40.235Z,90.30
2023-01-26T02:46:07.042Z,79.20
2023-01-26T02:48:52.275Z,82.57
2023-01-26T02:51:19.042Z,86.23
2023-01-26T02:53:45.740Z,76.60
2023-01-26T02:56:12.509Z,85.17
2023-01-26T02:58:39.299Z,82.57
2023-01-26T03:01:06.105Z,81.57
2023-01-26T03:03:42.206Z,78.00
2023-01-26T03:06:10.570Z,78.27
2023-01-26T03:08:37.765Z,73.67
2023-01-26T03:11:05.977Z,76.73
2023-01-26T03:13:32.736Z,73.77
2023-01-26T03:16:06.724Z,82.33
2023-01-26T03:18:53.399Z,71.40
2023-01-26T03:21:38.591Z,73.60
2023-01-26T03:24:24.279Z,76.00
2023-01-26T03:27:09.511Z,85.33
2023-01-26T03:29:36.337Z,75.03
2023-01-26T03:32:03.147Z,73.00
2023-01-26T03:34:29.958Z,82.17
2023-01-26T03:36:57.154Z,77.27
2023-01-26T03:39:42.383Z,93.70
2023-01-26T03:42:27.944Z,84.80
2023-01-26T03:45:13.318Z,79.60
2023-01-26T03:47:58.732Z,102.00
2023-01-26T03:50:44.194Z,94.93
2023-01-26T03:53:33.304Z,104.20
2023-01-26T03:56:18.508Z,104.10
2023-01-26T03:58:46.239Z,108.87
2023-01-26T04:01:21.724Z,97.47
2023-01-26T04:04:09.107Z,107.50
2023-01-26T04:06:56.718Z,95.30
2023-01-26T04:09:23.849Z,94.10
2023-01-26T04:11:50.592Z,109.80
2023-01-26T04:14:47.694Z,90.63
2023-01-26T04:17:36.218Z,97.93
2023-01-26T04:20:21.880Z,106.20
2023-01-26T04:22:48.588Z,90.37
2023-01-26T04:25:18.278Z,87.37
2023-01-26T04:27:46.139Z,89.47
2023-01-26T04:30:14.500Z,106.63
2023-01-26T04:32:41.329Z,88.13
2023-01-26T04:35:09.551Z,91.40
2023-01-26T04:37:36.560Z,92.57
2023-01-26T04:40:04.420Z,70.70
2023-01-26T04:42:31.264Z,68.33
2023-01-26T04:44:58.367Z,70.30
2023-01-26T04:47:25.854Z,72.37
2023-01-26T04:49:53.780Z,75.70
2023-01-26T04:52:20.568Z,67.70
2023-01-26T04:54:47.305Z,72.57
2023-01-26T04:57:14.106Z,82.57
2023-01-26T04:59:40.818Z,67.30
2023-01-26T05:04:39.979Z,64.47
2023-01-26T05:07:06.719Z,70.70
2023-01-26T05:09:33.432Z,77.43
2023-01-26T05:12:20.134Z,66.53
2023-01-26T05:14:46.851Z,72.03
2023-01-26T05:17:13.576Z,70.13
2023-01-26T05:19:40.277Z,78.40
2023-01-26T05:22:07.001Z,66.17
2023-01-26T05:24:33.784Z,64.47
2023-01-26T05:27:19.042Z,63.07
2023-01-26T05:29:45.770Z,60.97
2023-01-26T05:32:12.898Z,67.10
2023-01-26T05:34:39.699Z,66.00
2023-01-26T05:37:06.481Z,66.20
2023-01-26T05:39:33.251Z,63.00
2023-01-26T05:42:00.021Z,66.83
2023-01-26T05:44:26.863Z,71.20
2023-01-26T05:46:53.689Z,58.43
2023-01-26T05:49:20.531Z,54.83
2023-01-26T05:51:47.297Z,56.57
2023-01-26T05:54:14.088Z,58.67
2023-01-26T05:56:40.813Z,61.83
2023-01-26T05:59:07.570Z,55.63
2023-01-26T06:01:34.340Z,52.07
2023-01-26T06:04:02.496Z,53.73
2023-01-26T06:06:29.801Z,52.27
2023-01-26T06:08:59.848Z,56.47
2023-01-26T06:11:26.899Z,53.30
2023-01-26T06:13:54.012Z,48.67
2023-01-26T06:16:21.228Z,49.40
2023-01-26T06:18:49.755Z,57.53
2023-01-26T06:21:19.876Z,54.33
2023-01-26T06:23:47.023Z,49.03
2023-01-26T06:26:15.381Z,61.40
2023-01-26T06:28:42.852Z,49.80
2023-01-26T06:31:12.913Z,56.17
2023-01-26T06:33:43.553Z,49.47
2023-01-26T06:36:12.929Z,49.03
2023-01-26T06:38:45.214Z,49.53
2023-01-26T06:41:12.430Z,52.93
2023-01-26T06:43:42.697Z,50.10
2023-01-26T06:46:10.102Z,61.70
2023-01-26T06:48:39.754Z,43.83
2023-01-26T06:51:46.502Z,44.37
2023-01-26T06:54:15.133Z,53.97
2023-01-26T06:56:42.775Z,49.20
2023-01-26T06:59:12.981Z,54.97
2023-01-26T07:01:43.555Z,49.00
2023-01-26T07:04:15.279Z,47.63
2023-01-26T07:06:43.856Z,54.23
2023-01-26T07:09:11.429Z,55.63
2023-01-26T07:11:38.492Z,50.77
2023-01-26T07:14:05.741Z,51.40
2023-01-26T07:16:38.047Z,52.47
2023-01-26T07:19:08.357Z,48.33
2023-01-26T07:21:36.284Z,57.77
2023-01-26T07:24:03.621Z,47.67
2023-01-26T07:26:31.522Z,49.00
2023-01-26T07:28:58.453Z,51.53
2023-01-26T07:31:25.733Z,53.47
2023-01-26T07:33:52.991Z,52.67
2023-01-26T07:36:22.957Z,45.83
2023-01-26T07:38:53.167Z,43.73
2023-01-26T07:41:20.466Z,48.80
2023-01-26T07:43:47.571Z,52.23
2023-01-26T07:46:14.666Z,48.17
2023-01-26T07:48:41.907Z,42.43
2023-01-26T07:51:12.541Z,44.20
2023-01-26T07:53:41.140Z,44.30
2023-01-26T07:56:14.373Z,47.43
2023-01-26T07:58:42.025Z,47.87
2023-01-26T08:01:16.694Z,43.57
2023-01-26T08:03:45.606Z,47.63
2023-01-26T08:06:14.727Z,49.10
2023-01-26T08:08:42.869Z,49.10
2023-01-26T08:11:10.982Z,46.60
2023-01-26T08:13:38.510Z,42.73
2023-01-26T08:16:09.626Z,56.10
2023-01-26T08:18:36.585Z,52.83
2023-01-26T08:21:03.508Z,49.73
2023-01-26T08:23:30.712Z,54.80
2023-01-26T08:26:17.970Z,54.17
2023-01-26T08:28:45.119Z,51.00
2023-01-26T08:31:19.981Z,49.10
2023-01-26T08:33:50.771Z,50.30
2023-01-26T08:36:21.710Z,41.73
2023-01-26T08:38:49.216Z,43.07
2023-01-26T08:41:15.962Z,46.10
2023-01-26T08:43:42.744Z,50.50
2023-01-26T08:46:09.691Z,52.80
2023-01-26T08:48:37.620Z,46.30
2023-01-26T08:51:06.280Z,44.60
2023-01-26T08:53:34.344Z,46.57
2023-01-26T08:56:02.470Z,53.40
2023-01-26T08:58:29.756Z,45.17
2023-01-26T09:00:56.533Z,45.90
2023-01-26T09:03:23.292Z,41.47
2023-01-26T09:05:50.045Z,46.83
2023-01-26T09:08:16.839Z,62.73
2023-01-26T09:10:45.246Z,64.60
2023-01-26T09:13:12.138Z,51.17
2023-01-26T09:15:39.058Z,45.43
2023-01-26T09:18:06.356Z,55.93
2023-01-26T09:20:33.132Z,43.17
2023-01-26T09:22:59.879Z,40.43
2023-01-26T09:25:26.609Z,35.83
2023-01-26T09:27:53.333Z,50.37
2023-01-26T09:30:20.229Z,36.23
2023-01-26T09:32:46.964Z,29.97
2023-01-26T09:35:14.939Z,27.67
2023-01-26T09:37:44.009Z,20.77
2023-01-26T09:40:31.763Z,27.83
2023-01-26T09:43:24.946Z,27.63
2023-01-26T09:45:58.918Z,23.27
2023-01-26T09:48:52.568Z,23.90
2023-01-26T09:51:37.464Z,21.97
2023-01-26T09:54:22.896Z,29.77
2023-01-26T09:56:49.696Z,26.53
2023-01-26T09:59:34.979Z,27.17
2023-01-26T10:04:42.642Z,26.83
2023-01-26T10:07:13.097Z,21.57
2023-01-26T10:09:45.745Z,22.87
2023-01-26T10:12:21.749Z,38.67
2023-01-26T10:15:08.482Z,16.60
2023-01-26T10:17:38.952Z,17.67
2023-01-26T10:20:23.556Z,28.17
2023-01-26T10:22:57.007Z,20.10
2023-01-26T10:25:41.235Z,17.53
2023-01-26T10:28:22.013Z,15.40
2023-01-26T10:30:51.328Z,18.50
2023-01-26T10:33:30.387Z,17.40
2023-01-26T10:35:57.575Z,15.20
2023-01-26T10:38:34.163Z,15.70
2023-01-26T10:41:03.392Z,12.67
2023-01-26T10:43:37.162Z,14.70
2023-01-26T10:46:04.935Z,15.27
2023-01-26T10:48:32.137Z,15.10
2023-01-26T10:51:15.705Z,14.57
2023-01-26T10:53:42.510Z,14.33
2023-01-26T10:56:14.957Z,16.20
2023-01-26T10:58:57.363Z,15.50
2023-01-26T11:01:27.674Z,14.50
2023-01-26T11:04:12.415Z,16.57
2023-01-26T11:06:39.420Z,15.67
2023-01-26T11:09:20.144Z,37.57
2023-01-26T11:11:58.883Z,18.30
2023-01-26T11:14:25.658Z,20.47
2023-01-26T11:17:21.784Z,17.47
2023-01-26T11:19:56.403Z,15.60
2023-01-26T11:22:56.701Z,27.23
2023-01-26T11:25:46.513Z,25.40
2023-01-26T11:28:22.303Z,13.47
2023-01-26T11:31:07.843Z,19.60
2023-01-26T11:33:51.424Z,18.70
2023-01-26T11:36:39.824Z,18.13
2023-01-26T11:39:11.163Z,27.77
2023-01-26T11:42:18.040Z,18.53
2023-01-26T11:45:03.499Z,27.03
2023-01-26T11:47:51.644Z,28.43
2023-01-26T11:50:44.180Z,20.77
2023-01-26T11:53:44.520Z,21.73
2023-01-26T11:56:29.934Z,18.93
2023-01-26T11:59:06.242Z,22.87
2023-01-26T12:01:42.976Z,27.23
2023-01-26T12:04:21.873Z,28.83
2023-01-26T12:07:00.105Z,23.87
2023-01-26T12:09:42.221Z,26.97
2023-01-26T12:12:14.888Z,26.10
2023-01-26T12:14:51.134Z,34.07
2023-01-26T12:17:36.704Z,33.67
2023-01-26T12:20:21.559Z,28.40
2023-01-26T12:22:55.572Z,31.30
2023-01-26T12:25:36.018Z,36.57
2023-01-26T12:28:25.756Z,38.10
2023-01-26T12:31:21.563Z,30.53
2023-01-26T12:33:52.526Z,28.90
2023-01-26T12:36:43.246Z,30.87
2023-01-26T12:39:15.089Z,31.77
2023-01-26T12:41:59.027Z,21.30
2023-01-26T12:44:48.562Z,30.60
2023-01-26T12:47:21.965Z,29.10
2023-01-26T12:50:16.755Z,35.10
2023-01-26T12:53:06.619Z,32.80
2023-01-26T12:55:42.903Z,32.50
2023-01-26T12:58:18.650Z,32.67
2023-01-26T13:01:14.815Z,34.60
2023-01-26T13:03:45.227Z,36.73
2023-01-26T13:06:15.210Z,35.73
2023-01-26T13:08:53.638Z,38.83
2023-01-26T13:11:38.928Z,40.50
2023-01-26T13:14:38.506Z,50.27
2023-01-26T13:17:27.962Z,40.40
2023-01-26T13:19:59.807Z,41.67
2023-01-26T13:22:26.593Z,40.50
2023-01-26T13:24:57.579Z,38.80
2023-01-26T13:27:39.357Z,46.93
2023-01-26T13:30:46.101Z,45.63
2023-01-26T13:33:22.044Z,44.77
2023-01-26T13:35:51.233Z,48.00
2023-01-26T13:38:29.747Z,47.03
2023-01-26T13:40:56.492Z,49.40
2023-01-26T13:43:40.251Z,50.93
2023-01-26T13:46:25.617Z,40.17
2023-01-26T13:48:55.243Z,47.43
2023-01-26T13:51:26.940Z,54.03
2023-01-26T13:54:10.982Z,40.00
2023-01-26T13:56:43.063Z,38.93
2023-01-26T13:59:09.843Z,50.90
2023-01-26T14:01:47.689Z,46.73
2023-01-26T14:04:26.497Z,43.77
2023-01-26T14:07:01.236Z,38.77
2023-01-26T14:09:34.031Z,53.37
2023-01-26T14:12:08.446Z,35.77
2023-01-26T14:14:37.431Z,53.23
2023-01-26T14:17:23.448Z,45.30
2023-01-26T14:19:50.215Z,45.93
2023-01-26T14:22:18.630Z,43.97
2023-01-26T14:24:50.136Z,51.90
2023-01-26T14:27:37.308Z,49.50
2023-01-26T14:30:31.943Z,45.70
2023-01-26T14:33:15.023Z,47.77
2023-01-26T14:35:43.177Z,35.90
2023-01-26T14:38:12.890Z,40.63
2023-01-26T14:40:51.340Z,55.43
2023-01-26T14:43:18.548Z,43.10
2023-01-26T14:45:56.592Z,57.17
2023-01-26T14:48:28.672Z,39.50
2023-01-26T14:50:55.747Z,49.60
2023-01-26T14:53:24.299Z,30.50
2023-01-26T14:55:52.653Z,43.63
2023-01-26T14:58:29.792Z,52.83
2023-01-26T15:01:01.398Z,38.40
2023-01-26T15:03:33.721Z,51.67
2023-01-26T15:06:05.689Z,45.10
2023-01-26T15:08:35.218Z,35.80
2023-01-26T15:11:22.447Z,54.23
2023-01-26T15:13:54.109Z,39.37
2023-01-26T15:16:25.686Z,45.03
2023-01-26T15:19:01.173Z,29.10
2023-01-26T15:21:34.400Z,31.03
2023-01-26T15:24:01.262Z,33.80
2023-01-26T15:26:36.032Z,33.00
2023-01-26T15:29:15.549Z,32.63
2023-01-26T15:31:42.897Z,30.10
2023-01-26T15:34:30.071Z,25.90
2023-01-26T15:36:58.706Z,34.77
2023-01-26T15:39:25.745Z,31.63
2023-01-26T15:42:15.050Z,40.53
2023-01-26T15:44:42.534Z,30.87
2023-01-26T15:47:11.428Z,38.50
2023-01-26T15:49:38.618Z,39.47
2023-01-26T15:52:14.752Z,24.53
2023-01-26T15:54:41.933Z,38.50
2023-01-26T15:57:11.233Z,36.80
2023-01-26T15:59:39.176Z,34.03
2023-01-26T16:02:17.553Z,34.53
2023-01-26T16:04:44.464Z,48.97
2023-01-26T16:07:18.640Z,50.40
2023-01-26T16:09:45.482Z,32.67
2023-01-26T16:12:33.241Z,54.37
2023-01-26T16:15:00.474Z,49.93
2023-01-26T16:17:27.457Z,46.80
2023-01-26T16:19:54.400Z,36.63
2023-01-26T16:22:21.165Z,64.93
2023-01-26T16:24:47.869Z,40.17
2023-01-26T16:27:14.658Z,58.40
2023-01-26T16:29:41.419Z,46.47
2023-01-26T16:32:29.192Z,46.53
2023-01-26T16:34:56.206Z,53.27
2023-01-26T16:37:22.943Z,54.53
2023-01-26T16:39:49.690Z,62.17
2023-01-26T16:42:19.860Z,48.20
2023-01-26T16:44:47.021Z,56.00
2023-01-26T16:47:13.783Z,64.50
2023-01-26T16:49:40.581Z,53.67
2023-01-26T16:52:09.451Z,55.77
2023-01-26T16:54:36.373Z,55.13
2023-01-26T16:57:03.165Z,65.07
2023-01-26T16:59:30.057Z,56.33
2023-01-26T17:04:33.561Z,78.63
2023-01-26T17:07:00.343Z,54.20
2023-01-26T17:09:27.197Z,89.87
2023-01-26T17:11:53.961Z,53.73
2023-01-26T17:14:20.821Z,82.47
2023-01-26T17:16:47.563Z,65.73
2023-01-26T17:19:14.391Z,61.40
2023-01-26T17:21:41.194Z,57.70
2023-01-26T17:24:08.179Z,59.03
2023-01-26T17:26:35.038Z,56.03
2023-01-26T17:29:01.802Z,54.27
2023-01-26T17:31:29.214Z,72.07
2023-01-26T17:33:56.076Z,62.87
2023-01-26T17:36:22.922Z,74.17
2023-01-26T17:38:49.802Z,67.57
2023-01-26T17:41:17.204Z,65.53
2023-01-26T17:43:44.627Z,72.53
2023-01-26T17:46:19.411Z,90.43
2023-01-26T17:48:47.022Z,80.00
2023-01-26T17:51:19.636Z,73.23
2023-01-26T17:53:49.775Z,83.70
2023-01-26T17:56:19.031Z,112.37
2023-01-26T17:58:53.816Z,83.90
2023-01-26T18:01:22.230Z,83.70
2023-01-26T18:03:49.326Z,75.40
2023-01-26T18:06:16.915Z,82.77
2023-01-26T18:08:43.706Z,66.03
2023-01-26T18:11:12.748Z,54.23
2023-01-26T18:13:40.026Z,67.60
2023-01-26T18:16:09.081Z,61.20
2023-01-26T18:18:36.097Z,56.10
2023-01-26T18:21:12.277Z,51.80
2023-01-26T18:23:39.018Z,45.53
2023-01-26T18:26:06.265Z,54.40
2023-01-26T18:28:33.036Z,50.13
2023-01-26T18:31:02.785Z,53.60
2023-01-26T18:33:29.610Z,46.47
2023-01-26T18:36:03.668Z,44.43
2023-01-26T18:38:30.624Z,48.50
2023-01-26T18:40:57.347Z,37.67
2023-01-26T18:43:27.449Z,44.80
2023-01-26T18:45:54.149Z,27.63
2023-01-26T18:48:20.938Z,28.80
2023-01-26T18:50:50.868Z,20.90
2023-01-26T18:53:17.581Z,26.53
2023-01-26T18:55:44.330Z,17.57
2023-01-26T18:58:11.064Z,14.00
2023-01-26T19:00:37.937Z,30.60
2023-01-26T19:03:04.832Z,17.23
2023-01-26T19:05:31.753Z,22.07
2023-01-26T19:07:58.545Z,14.60
2023-01-26T19:10:25.288Z,10.70
2023-01-26T19:12:52.037Z,10.70
2023-01-26T19:15:18.872Z,13.30
2023-01-26T19:17:46.429Z,30.57
2023-01-26T19:20:13.373Z,24.40
2023-01-26T19:22:40.199Z,10.20
2023-01-26T19:25:07.223Z,7.63
2023-01-26T19:27:33.951Z,8.87
2023-01-26T19:30:00.782Z,12.53
2023-01-26T19:32:27.478Z,6.30
2023-01-26T19:34:54.234Z,8.20
2023-01-26T19:37:20.936Z,6.50
2023-01-26T19:39:47.705Z,10.53
2023-01-26T19:42:14.437Z,10.03
2023-01-26T19:44:41.171Z,12.30
2023-01-26T19:47:07.873Z,9.77
2023-01-26T19:49:34.588Z,11.47
2023-01-26T19:52:01.312Z,7.13
2023-01-26T19:54:28.193Z,21.23
2023-01-26T19:56:55.085Z,7.13
2023-01-26T19:59:22.580Z,10.07
2023-01-26T20:01:49.533Z,8.10
2023-01-26T20:04:16.331Z,2.90
2023-01-26T20:06:43.085Z,14.03
2023-01-26T20:09:09.892Z,15.60
2023-01-26T20:11:36.648Z,5.57
2023-01-26T20:14:06.489Z,9.27
2023-01-26T20:16:34.387Z,4.40
2023-01-26T20:19:01.820Z,9.90
2023-01-26T20:21:29.732Z,14.90
2023-01-26T20:23:57.245Z,12.43
2023-01-26T20:26:27.845Z,8.70
2023-01-26T20:28:57.967Z,10.30
2023-01-26T20:31:26.832Z,10.03
2023-01-26T20:33:54.612Z,5.10
2023-01-26T20:36:24.700Z,13.03
2023-01-26T20:38:51.992Z,8.10
2023-01-26T20:41:21.915Z,7.70
2023-01-26T20:43:59.309Z,7.70
2023-01-26T20:46:29.557Z,7.10
2023-01-26T20:48:56.943Z,5.07
2023-01-26T20:51:33.992Z,13.87
2023-01-26T20:54:01.993Z,8.73
2023-01-26T20:56:29.135Z,3.80
2023-01-26T20:58:56.250Z,7.93
2023-01-26T21:01:24.251Z,10.30
2023-01-26T21:03:51.595Z,11.40
2023-01-26T21:06:20.247Z,5.60
2023-01-26T21:08:48.241Z,7.17
2023-01-26T21:11:16.626Z,7.63
2023-01-26T21:13:44.392Z,11.00
2023-01-26T21:16:14.371Z,5.57
2023-01-26T21:18:41.554Z,5.57
2023-01-26T21:21:10.655Z,10.17
2023-01-26T21:23:37.390Z,11.13
2023-01-26T21:26:06.734Z,6.20
2023-01-26T21:28:34.093Z,7.03
2023-01-26T21:31:05.859Z,9.53
2023-01-26T21:33:34.231Z,15.00
2023-01-26T21:36:03.531Z,7.53
2023-01-26T21:38:35.363Z,8.63
2023-01-26T21:41:04.459Z,10.10
2023-01-26T21:43:31.292Z,10.80
2023-01-26T21:45:59.286Z,19.40
2023-01-26T21:48:35.655Z,11.97
2023-01-26T21:51:21.357Z,11.67
2023-01-26T21:53:48.128Z,7.50
2023-01-26T21:56:16.206Z,12.20
2023-01-26T21:58:57.715Z,7.27
2023-01-26T22:01:25.457Z,5.13
2023-01-26T22:03:57.232Z,5.33
2023-01-26T22:06:25.156Z,7.43
2023-01-26T22:08:52.745Z,8.53
2023-01-26T22:11:20.255Z,11.50
2023-01-26T22:13:47.902Z,8.30
2023-01-26T22:16:15.262Z,7.07
2023-01-26T22:18:42.076Z,13.80
2023-01-26T22:21:08.875Z,5.10
2023-01-26T22:23:37.602Z,13.07
2023-01-26T22:26:12.706Z,12.27
2023-01-26T22:28:39.640Z,12.47
2023-01-26T22:31:07.766Z,6.40
2023-01-26T22:33:35.451Z,5.70
2023-01-26T22:36:08.698Z,21.27
2023-01-26T22:38:36.753Z,7.33
2023-01-26T22:41:06.222Z,9.93
2023-01-26T22:43:33.959Z,7.47
2023-01-26T22:46:05.892Z,4.73
2023-01-26T22:48:33.475Z,15.20
2023-01-26T22:51:08.125Z,14.27
2023-01-26T22:53:35.549Z,9.60
2023-01-26T22:56:02.662Z,6.53
2023-01-26T22:58:31.645Z,4.70
2023-01-26T23:01:15.079Z,11.97
2023-01-26T23:03:44.668Z,10.07
2023-01-26T23:06:14.090Z,13.93
2023-01-26T23:08:41.825Z,13.50
2023-01-26T23:11:10.924Z,8.83
2023-01-26T23:13:37.841Z,11.30
2023-01-26T23:16:05.140Z,8.70
2023-01-26T23:18:32.421Z,12.07
2023-01-26T23:20:59.799Z,11.00
2023-01-26T23:23:27.378Z,7.60
2023-01-26T23:25:55.015Z,8.73
2023-01-26T23:28:24.952Z,11.60
2023-01-26T23:30:52.878Z,6.53
2023-01-26T23:33:21.939Z,16.10
2023-01-26T23:35:48.934Z,15.03
2023-01-26T23:38:16.059Z,6.77
2023-01-26T23:40:44.107Z,12.40
2023-01-26T23:43:17.134Z,12.93
2023-01-26T23:45:45.651Z,22.33
2023-01-26T23:48:12.659Z,7.20
2023-01-26T23:50:39.473Z,25.83
2023-01-26T23:53:06.365Z,12.03
2023-01-26T23:55:33.518Z,10.53
2023-01-26T23:58:00.371Z,9.13
